createdAt,value
2018-06-14T00:02:11.655Z,5.40
2018-06-14T00:04:39.413Z,5.70
2018-06-14T00:07:07.191Z,5.10
2018-06-14T00:09:35.057Z,5.20
2018-06-14T00:12:02.688Z,5.30
2018-06-14T00:14:30.527Z,5.03
2018-06-14T00:16:58.303Z,5.83
2018-06-14T00:19:25.954Z,4.50
2018-06-14T00:21:53.596Z,5.67
2018-06-14T00:24:21.227Z,5.10
2018-06-14T00:26:48.727Z,5.13
2018-06-14T00:29:16.334Z,5.30
2018-06-14T00:31:48.762Z,5.27
2018-06-14T00:34:16.322Z,5.60
2018-06-14T00:36:43.960Z,5.20
2018-06-14T00:39:11.549Z,4.87
2018-06-14T00:41:39.170Z,5.47
2018-06-14T00:44:06.793Z,5.10
2018-06-14T00:46:34.689Z,5.80
2018-06-14T00:49:02.248Z,4.90
2018-06-14T00:51:29.902Z,5.70
2018-06-14T00:53:57.641Z,5.47
2018-06-14T00:56:25.217Z,5.10
2018-06-14T00:58:54.931Z,5.73
2018-06-14T01:01:22.593Z,4.90
2018-06-14T01:03:50.153Z,5.50
2018-06-14T01:06:17.788Z,5.83
2018-06-14T01:08:45.434Z,5.93
2018-06-14T01:11:13.048Z,5.47
2018-06-14T01:13:40.711Z,5.20
2018-06-14T01:16:08.361Z,5.47
2018-06-14T01:18:35.905Z,5.60
2018-06-14T01:21:03.413Z,5.13
2018-06-14T01:23:31.079Z,5.50
2018-06-14T01:25:58.715Z,5.40
2018-06-14T01:28:26.269Z,5.80
2018-06-14T01:30:53.859Z,4.60
2018-06-14T01:33:21.475Z,5.30
2018-06-14T01:35:49.097Z,5.30
2018-06-14T01:38:22.998Z,4.93
2018-06-14T01:40:50.652Z,5.10
2018-06-14T01:43:18.446Z,4.70
2018-06-14T01:45:46.043Z,5.20
2018-06-14T01:48:13.713Z,5.63
2018-06-14T01:50:41.233Z,4.67
2018-06-14T01:53:08.895Z,4.90
2018-06-14T01:55:36.506Z,4.40
2018-06-14T01:58:04.249Z,6.10
2018-06-14T02:00:32.025Z,5.43
2018-06-14T02:02:59.578Z,5.33
2018-06-14T02:05:27.658Z,4.90
2018-06-14T02:07:55.255Z,5.33
2018-06-14T02:10:22.812Z,4.83
2018-06-14T02:12:50.464Z,4.80
2018-06-14T02:15:18.035Z,5.17
2018-06-14T02:17:45.626Z,5.23
2018-06-14T02:20:13.226Z,5.97
2018-06-14T02:22:40.785Z,4.53
2018-06-14T02:25:08.326Z,5.50
2018-06-14T02:27:35.889Z,5.77
2018-06-14T02:30:04.911Z,4.83
2018-06-14T02:32:32.714Z,5.47
2018-06-14T02:35:00.403Z,4.67
2018-06-14T02:37:28.108Z,4.80
2018-06-14T02:39:55.695Z,4.60
2018-06-14T02:42:23.343Z,4.40
2018-06-14T02:44:50.971Z,5.27
2018-06-14T02:47:41.752Z,4.37
2018-06-14T02:50:09.895Z,4.40
2018-06-14T02:52:37.580Z,5.23
2018-06-14T02:55:05.602Z,5.03
2018-06-14T02:57:33.162Z,3.83
2018-06-14T03:00:00.795Z,4.90
2018-06-14T03:02:28.728Z,4.73
2018-06-14T03:04:56.337Z,4.80
2018-06-14T03:07:29.610Z,4.80
2018-06-14T03:09:57.339Z,5.17
2018-06-14T03:12:25.262Z,4.87
2018-06-14T03:14:52.895Z,4.80
2018-06-14T03:17:21.004Z,4.70
2018-06-14T03:20:03.144Z,5.87
2018-06-14T03:22:30.847Z,5.20
2018-06-14T03:24:58.530Z,5.03
2018-06-14T03:27:26.134Z,4.77
2018-06-14T03:29:53.883Z,4.67
2018-06-14T03:32:21.595Z,4.63
2018-06-14T03:34:49.226Z,4.63
2018-06-14T03:37:16.886Z,5.30
2018-06-14T03:39:44.620Z,5.10
2018-06-14T03:42:13.313Z,5.87
2018-06-14T03:44:40.956Z,4.63
2018-06-14T03:47:22.281Z,4.53
2018-06-14T03:49:49.882Z,5.27
2018-06-14T03:52:17.420Z,5.07
2018-06-14T03:54:47.044Z,5.53
2018-06-14T03:57:14.516Z,5.00
2018-06-14T03:59:42.049Z,5.10
2018-06-14T04:02:09.957Z,6.07
2018-06-14T04:04:37.844Z,5.73
2018-06-14T04:07:05.564Z,4.90
2018-06-14T04:09:33.148Z,4.60
2018-06-14T04:12:00.710Z,4.70
2018-06-14T04:14:28.213Z,5.97
2018-06-14T04:16:55.760Z,5.97
2018-06-14T04:19:23.360Z,5.73
2018-06-14T04:21:50.972Z,5.30
2018-06-14T04:24:18.514Z,4.90
2018-06-14T04:26:47.211Z,5.80
2018-06-14T04:29:14.768Z,5.30
2018-06-14T04:31:42.360Z,4.97
2018-06-14T04:34:09.931Z,5.17
2018-06-14T04:36:37.556Z,5.60
2018-06-14T04:39:07.760Z,5.70
2018-06-14T04:41:36.740Z,5.70
2018-06-14T04:44:04.470Z,5.70
2018-06-14T04:46:32.424Z,6.40
2018-06-14T04:49:00.017Z,5.10
2018-06-14T04:51:27.721Z,6.33
2018-06-14T04:53:55.339Z,6.23
2018-06-14T04:56:23.141Z,6.10
2018-06-14T04:58:50.685Z,5.30
2018-06-14T05:01:18.417Z,5.10
2018-06-14T05:03:46.178Z,6.17
2018-06-14T05:06:13.902Z,5.57
2018-06-14T05:08:41.417Z,5.97
2018-06-14T05:11:09.098Z,5.40
2018-06-14T05:13:36.769Z,5.10
2018-06-14T05:16:04.547Z,6.17
2018-06-14T05:18:32.314Z,5.20
2018-06-14T05:20:59.759Z,5.93
2018-06-14T05:23:27.473Z,6.03
2018-06-14T05:25:54.991Z,6.37
2018-06-14T05:28:22.604Z,6.77
2018-06-14T05:30:50.204Z,5.70
2018-06-14T05:33:17.855Z,6.33
2018-06-14T05:35:45.417Z,6.03
2018-06-14T05:38:12.954Z,6.30
2018-06-14T05:40:40.397Z,6.50
2018-06-14T05:43:07.963Z,5.97
2018-06-14T05:45:35.587Z,6.37
2018-06-14T05:48:03.213Z,6.63
2018-06-14T05:50:30.825Z,5.90
2018-06-14T05:52:58.399Z,6.20
2018-06-14T05:55:25.916Z,6.40
2018-06-14T05:57:53.642Z,6.20
2018-06-14T06:00:21.662Z,6.40
2018-06-14T06:02:50.492Z,5.90
2018-06-14T06:05:34.677Z,5.70
2018-06-14T06:08:02.476Z,6.47
2018-06-14T06:10:30.010Z,6.73
2018-06-14T06:12:57.632Z,6.37
2018-06-14T06:15:25.220Z,6.47
2018-06-14T06:17:52.834Z,6.53
2018-06-14T06:20:20.461Z,6.87
2018-06-14T06:22:48.031Z,6.63
2018-06-14T06:25:19.780Z,7.57
2018-06-14T06:27:47.330Z,7.03
2018-06-14T06:30:14.822Z,6.90
2018-06-14T06:32:42.355Z,7.40
2018-06-14T06:35:09.999Z,7.50
2018-06-14T06:37:37.560Z,7.17
2018-06-14T06:40:05.127Z,7.90
2018-06-14T06:42:32.741Z,7.40
2018-06-14T06:45:05.789Z,7.53
2018-06-14T06:47:33.275Z,8.43
2018-06-14T06:50:00.851Z,7.70
2018-06-14T06:52:28.337Z,8.67
2018-06-14T06:54:55.864Z,7.63
2018-06-14T06:57:23.384Z,8.53
2018-06-14T06:59:56.163Z,7.67
2018-06-14T07:02:23.616Z,6.67
2018-06-14T07:04:51.084Z,8.97
2018-06-14T07:07:18.680Z,8.07
2018-06-14T07:09:46.246Z,7.47
2018-06-14T07:12:13.776Z,7.30
2018-06-14T07:14:41.266Z,7.50
2018-06-14T07:17:08.863Z,8.10
2018-06-14T07:19:36.370Z,8.37
2018-06-14T07:22:03.977Z,7.40
2018-06-14T07:24:31.516Z,8.57
2018-06-14T07:26:59.026Z,7.73
2018-06-14T07:29:26.560Z,8.33
2018-06-14T07:31:54.076Z,7.80
2018-06-14T07:34:21.606Z,6.80
2018-06-14T07:36:52.221Z,8.43
2018-06-14T07:39:19.772Z,6.13
2018-06-14T07:41:47.322Z,5.70
2018-06-14T07:44:14.864Z,6.27
2018-06-14T07:46:42.393Z,7.10
2018-06-14T07:49:09.991Z,5.50
2018-06-14T07:51:37.550Z,7.33
2018-06-14T07:54:05.131Z,7.50
2018-06-14T07:56:32.722Z,6.43
2018-06-14T07:59:00.273Z,5.93
2018-06-14T08:01:27.820Z,5.93
2018-06-14T08:03:55.390Z,6.50
2018-06-14T08:06:22.961Z,5.00
2018-06-14T08:08:50.517Z,5.50
2018-06-14T08:11:18.041Z,6.17
2018-06-14T08:13:45.556Z,5.10
2018-06-14T08:16:13.146Z,4.80
2018-06-14T08:18:40.661Z,4.47
2018-06-14T08:21:08.168Z,3.93
2018-06-14T08:23:35.692Z,4.90
2018-06-14T08:26:03.284Z,4.40
2018-06-14T08:28:30.839Z,4.30
2018-06-14T08:30:58.382Z,5.00
2018-06-14T08:33:25.904Z,3.90
2018-06-14T08:35:53.506Z,3.97
2018-06-14T08:38:21.121Z,4.30
2018-06-14T08:40:48.718Z,4.67
2018-06-14T08:43:16.256Z,4.00
2018-06-14T08:45:43.728Z,4.30
2018-06-14T08:48:11.310Z,3.87
2018-06-14T08:50:38.884Z,4.00
2018-06-14T08:53:06.486Z,3.80
2018-06-14T08:55:34.096Z,4.60
2018-06-14T08:58:01.701Z,4.27
2018-06-14T09:00:29.272Z,4.20
2018-06-14T09:02:56.831Z,4.50
2018-06-14T09:05:24.361Z,4.50
2018-06-14T09:07:51.914Z,4.70
2018-06-14T09:10:19.532Z,4.67
2018-06-14T09:12:49.171Z,4.80
2018-06-14T09:15:16.730Z,4.00
2018-06-14T09:17:44.304Z,4.30
2018-06-14T09:20:11.801Z,4.60
2018-06-14T09:22:39.312Z,4.10
2018-06-14T09:25:06.892Z,4.20
2018-06-14T09:27:34.454Z,4.23
2018-06-14T09:30:02.019Z,3.93
2018-06-14T09:32:29.620Z,4.27
2018-06-14T09:34:57.200Z,3.90
2018-06-14T09:37:24.836Z,3.57
2018-06-14T09:39:52.346Z,4.33
2018-06-14T09:42:19.832Z,3.97
2018-06-14T09:44:47.442Z,4.03
2018-06-14T09:47:15.009Z,4.90
2018-06-14T09:49:42.534Z,4.27
2018-06-14T09:52:10.093Z,3.67
2018-06-14T09:54:37.546Z,4.30
2018-06-14T09:57:06.119Z,3.80
2018-06-14T09:59:33.708Z,3.40
2018-06-14T10:02:01.225Z,4.13
2018-06-14T10:04:28.846Z,3.47
2018-06-14T10:06:56.426Z,3.43
2018-06-14T10:12:19.343Z,3.23
2018-06-14T10:14:46.999Z,3.97
2018-06-14T10:17:15.555Z,2.90
2018-06-14T10:19:44.158Z,3.73
2018-06-14T10:22:11.738Z,4.00
2018-06-14T10:24:44.117Z,3.70
2018-06-14T10:27:12.709Z,3.93
2018-06-14T10:29:40.676Z,4.10
2018-06-14T10:32:08.229Z,3.80
2018-06-14T10:34:37.841Z,3.73
2018-06-14T10:37:07.780Z,3.90
2018-06-14T10:39:35.419Z,4.00
2018-06-14T10:42:03.082Z,4.40
2018-06-14T10:44:30.640Z,3.80
2018-06-14T10:46:58.205Z,4.87
2018-06-14T10:49:26.804Z,4.37
2018-06-14T10:51:55.394Z,3.63
2018-06-14T10:54:23.052Z,3.80
2018-06-14T10:56:50.646Z,3.60
2018-06-14T10:59:18.193Z,4.03
2018-06-14T11:01:45.686Z,3.87
2018-06-14T11:04:13.208Z,3.70
2018-06-14T11:12:31.874Z,4.00
2018-06-14T11:14:59.421Z,3.23
2018-06-14T11:17:27.083Z,3.80
2018-06-14T11:19:54.843Z,4.47
2018-06-14T11:22:22.434Z,4.33
2018-06-14T11:24:50.004Z,3.87
2018-06-14T11:27:17.638Z,4.43
2018-06-14T11:29:45.213Z,3.77
2018-06-14T11:32:12.781Z,3.50
2018-06-14T11:34:40.276Z,4.30
2018-06-14T11:37:07.812Z,4.80
2018-06-14T11:39:35.408Z,4.93
2018-06-14T11:42:02.840Z,3.80
2018-06-14T11:44:31.469Z,4.20
2018-06-14T11:46:59.039Z,3.40
2018-06-14T11:49:26.520Z,4.17
2018-06-14T11:51:54.094Z,3.87
2018-06-14T11:54:21.582Z,4.10
2018-06-14T11:56:49.302Z,4.20
2018-06-14T11:59:16.999Z,4.53
2018-06-14T12:01:44.585Z,4.17
2018-06-14T12:04:12.106Z,4.03
2018-06-14T12:06:39.625Z,3.90
2018-06-14T12:09:07.900Z,4.47
2018-06-14T12:11:35.445Z,3.90
2018-06-14T12:14:03.021Z,3.50
2018-06-14T12:19:28.782Z,3.93
2018-06-14T12:21:56.298Z,3.23
2018-06-14T12:24:23.870Z,4.40
2018-06-14T12:26:51.422Z,4.00
2018-06-14T12:29:18.925Z,3.97
2018-06-14T12:31:46.475Z,4.23
2018-06-14T12:34:17.169Z,4.17
2018-06-14T12:36:44.666Z,4.20
2018-06-14T12:39:12.271Z,4.10
2018-06-14T12:41:39.933Z,3.80
2018-06-14T12:44:07.724Z,4.13
2018-06-14T12:46:35.200Z,3.80
2018-06-14T12:49:03.225Z,4.07
2018-06-14T12:51:30.752Z,4.00
2018-06-14T12:53:58.292Z,3.40
2018-06-14T12:56:25.872Z,3.90
2018-06-14T12:58:56.546Z,4.27
2018-06-14T13:01:24.206Z,3.97
2018-06-14T13:03:52.655Z,4.03
2018-06-14T13:06:22.481Z,3.87
2018-06-14T13:08:51.722Z,3.30
2018-06-14T13:11:23.070Z,3.80
2018-06-14T13:13:50.819Z,2.90
2018-06-14T13:16:18.707Z,3.97
2018-06-14T13:18:47.405Z,4.10
2018-06-14T13:21:15.989Z,3.60
2018-06-14T13:23:44.169Z,4.57
2018-06-14T13:26:11.837Z,3.50
2018-06-14T13:28:39.442Z,3.77
2018-06-14T13:31:07.066Z,3.73
2018-06-14T13:33:34.557Z,3.80
2018-06-14T13:36:02.390Z,4.80
2018-06-14T13:38:30.089Z,4.90
2018-06-14T13:40:57.694Z,4.60
2018-06-14T13:43:26.383Z,5.00
2018-06-14T13:45:54.000Z,5.40
2018-06-14T13:48:21.531Z,4.67
2018-06-14T13:50:49.077Z,4.60
2018-06-14T13:53:16.569Z,5.77
2018-06-14T13:55:44.170Z,6.27
2018-06-14T13:58:11.781Z,5.70
2018-06-14T14:00:39.337Z,5.10
2018-06-14T14:03:06.841Z,5.60
2018-06-14T14:05:34.421Z,5.50
2018-06-14T14:08:02.034Z,5.10
2018-06-14T14:10:29.601Z,5.20
2018-06-14T14:12:57.193Z,5.10
2018-06-14T14:15:24.718Z,5.37
2018-06-14T14:17:52.274Z,4.90
2018-06-14T14:20:19.757Z,5.00
2018-06-14T14:22:47.285Z,7.13
2018-06-14T14:25:25.725Z,6.73
2018-06-14T14:27:53.218Z,6.00
2018-06-14T14:30:20.791Z,6.03
2018-06-14T14:32:48.382Z,4.87
2018-06-14T14:35:15.992Z,6.67
2018-06-14T14:37:43.600Z,6.90
2018-06-14T14:40:11.177Z,6.30
2018-06-14T14:42:38.771Z,6.80
2018-06-14T14:45:06.336Z,7.60
2018-06-14T14:47:33.865Z,5.70
2018-06-14T14:50:01.721Z,7.00
2018-06-14T14:52:29.330Z,7.20
2018-06-14T14:54:56.858Z,6.60
2018-06-14T14:57:24.394Z,6.50
2018-06-14T14:59:51.937Z,7.47
2018-06-14T15:02:19.458Z,5.60
2018-06-14T15:04:47.002Z,6.90
2018-06-14T15:07:14.623Z,6.13
2018-06-14T15:09:42.108Z,5.90
2018-06-14T15:12:09.688Z,5.60
2018-06-14T15:14:37.195Z,5.80
2018-06-14T15:17:04.853Z,5.20
2018-06-14T15:19:32.336Z,5.60
2018-06-14T15:21:59.933Z,5.97
2018-06-14T15:24:27.488Z,6.67
2018-06-14T15:26:55.114Z,5.90
2018-06-14T15:29:22.689Z,5.77
2018-06-14T15:31:50.306Z,6.80
2018-06-14T15:34:17.805Z,6.30
2018-06-14T15:36:45.397Z,6.10
2018-06-14T15:39:12.907Z,5.60
2018-06-14T15:41:40.484Z,5.90
2018-06-14T15:44:08.054Z,6.00
2018-06-14T15:46:35.580Z,5.63
2018-06-14T15:49:03.158Z,5.60
2018-06-14T15:51:30.672Z,5.00
2018-06-14T15:53:58.273Z,6.37
2018-06-14T15:56:33.072Z,5.90
2018-06-14T15:59:01.177Z,5.90
2018-06-14T16:01:28.730Z,6.73
2018-06-14T16:03:56.376Z,6.20
2018-06-14T16:06:23.973Z,6.03
2018-06-14T16:08:51.546Z,6.30
2018-06-14T16:11:19.074Z,5.77
2018-06-14T16:13:47.639Z,5.33
2018-06-14T16:16:15.456Z,5.87
2018-06-14T16:18:43.002Z,5.00
2018-06-14T16:21:10.630Z,6.20
2018-06-14T16:23:38.221Z,6.70
2018-06-14T16:26:05.994Z,6.00
2018-06-14T16:28:33.536Z,7.00
2018-06-14T16:31:01.145Z,6.50
2018-06-14T16:33:28.758Z,5.73
2018-06-14T16:35:59.511Z,6.57
2018-06-14T16:38:27.101Z,6.00
2018-06-14T16:40:54.636Z,6.27
2018-06-14T16:43:22.230Z,6.10
2018-06-14T16:45:49.825Z,5.47
2018-06-14T16:48:17.361Z,6.10
2018-06-14T16:50:44.952Z,5.70
2018-06-14T16:53:12.548Z,5.23
2018-06-14T16:55:40.040Z,6.00
2018-06-14T16:58:08.655Z,5.50
2018-06-14T17:00:39.447Z,6.07
2018-06-14T17:03:06.948Z,5.10
2018-06-14T17:05:34.546Z,5.83
2018-06-14T17:08:02.086Z,4.90
2018-06-14T17:10:29.678Z,4.67
2018-06-14T17:13:02.525Z,4.53
2018-06-14T17:15:30.061Z,5.37
2018-06-14T17:17:57.665Z,5.77
2018-06-14T17:20:25.232Z,5.53
2018-06-14T17:22:52.806Z,5.63
2018-06-14T17:25:20.430Z,5.30
2018-06-14T17:27:47.903Z,5.07
2018-06-14T17:30:15.559Z,5.03
2018-06-14T17:32:55.132Z,5.20
2018-06-14T17:35:22.714Z,5.07
2018-06-14T17:37:50.214Z,5.33
2018-06-14T17:40:17.769Z,4.90
2018-06-14T17:42:45.412Z,4.87
2018-06-14T17:45:12.979Z,5.60
2018-06-14T17:47:40.576Z,5.17
2018-06-14T17:50:08.156Z,5.13
2018-06-14T17:52:35.786Z,5.97
2018-06-14T17:55:03.588Z,5.37
2018-06-14T17:57:31.077Z,5.90
2018-06-14T17:59:58.719Z,5.47
2018-06-14T18:02:26.258Z,5.77
2018-06-14T18:04:53.878Z,5.23
2018-06-14T18:07:21.448Z,5.07
2018-06-14T18:09:49.096Z,5.30
2018-06-14T18:12:16.708Z,5.50
2018-06-14T18:14:45.263Z,5.63
2018-06-14T18:17:12.813Z,5.03
2018-06-14T18:19:40.356Z,5.67
2018-06-14T18:22:08.017Z,5.70
2018-06-14T18:24:35.550Z,5.40
2018-06-14T18:27:03.118Z,5.40
2018-06-14T18:29:30.656Z,5.30
2018-06-14T18:31:58.229Z,4.77
2018-06-14T18:34:25.854Z,5.30
2018-06-14T18:36:53.422Z,4.27
2018-06-14T18:39:20.960Z,5.60
2018-06-14T18:41:48.575Z,6.37
2018-06-14T18:44:16.239Z,5.20
2018-06-14T18:46:43.766Z,5.27
2018-06-14T18:49:11.278Z,5.47
2018-06-14T18:51:38.788Z,5.60
2018-06-14T18:54:06.349Z,5.50
2018-06-14T18:56:33.828Z,5.13
2018-06-14T18:59:01.390Z,5.33
2018-06-14T19:01:52.433Z,6.07
2018-06-14T19:04:19.967Z,4.90
2018-06-14T19:06:47.546Z,5.30
2018-06-14T19:09:15.026Z,5.60
2018-06-14T19:11:42.546Z,4.90
2018-06-14T19:14:10.070Z,5.03
2018-06-14T19:16:54.730Z,4.93
2018-06-14T19:19:22.268Z,6.17
2018-06-14T19:21:49.864Z,6.13
2018-06-14T19:24:17.456Z,5.80
2018-06-14T19:26:44.983Z,5.97
2018-06-14T19:29:12.455Z,6.30
2018-06-14T19:31:40.012Z,5.47
2018-06-14T19:34:08.615Z,5.37
2018-06-14T19:36:36.127Z,5.60
2018-06-14T19:39:06.480Z,5.53
2018-06-14T19:41:34.022Z,5.50
2018-06-14T19:44:01.669Z,6.03
2018-06-14T19:46:33.016Z,5.67
2018-06-14T19:49:00.570Z,5.70
2018-06-14T19:51:29.002Z,5.40
2018-06-14T19:53:56.533Z,6.00
2018-06-14T19:56:44.192Z,6.10
2018-06-14T19:59:11.786Z,6.03
2018-06-14T20:01:39.244Z,5.93
2018-06-14T20:04:06.827Z,6.93
2018-06-14T20:06:35.482Z,6.60
2018-06-14T20:09:03.807Z,7.10
2018-06-14T20:11:31.386Z,6.53
2018-06-14T20:14:04.798Z,7.20
2018-06-14T20:16:32.392Z,6.17
2018-06-14T20:18:59.905Z,6.20
2018-06-14T20:21:27.457Z,6.43
2018-06-14T20:23:54.954Z,6.10
2018-06-14T20:26:24.220Z,6.40
2018-06-14T20:28:52.253Z,5.97
2018-06-14T20:31:19.967Z,6.43
2018-06-14T20:33:47.537Z,6.23
2018-06-14T20:36:15.108Z,6.13
2018-06-14T20:38:42.753Z,6.90
2018-06-14T20:41:10.375Z,6.00
2018-06-14T20:43:37.962Z,6.30
2018-06-14T20:46:05.669Z,6.97
2018-06-14T20:48:33.306Z,6.40
2018-06-14T20:51:00.880Z,6.53
2018-06-14T20:53:28.569Z,6.33
2018-06-14T20:55:58.302Z,6.20
2018-06-14T20:58:25.963Z,6.70
2018-06-14T21:00:53.559Z,6.80
2018-06-14T21:03:21.155Z,6.70
2018-06-14T21:05:48.655Z,6.67
2018-06-14T21:08:16.193Z,5.90
2018-06-14T21:10:45.854Z,5.50
2018-06-14T21:13:13.600Z,6.10
2018-06-14T21:15:41.266Z,5.77
2018-06-14T21:18:09.985Z,5.73
2018-06-14T21:20:37.552Z,6.03
2018-06-14T21:23:11.671Z,6.90
2018-06-14T21:25:39.199Z,7.17
2018-06-14T21:28:06.777Z,6.60
2018-06-14T21:30:34.371Z,6.90
2018-06-14T21:33:01.957Z,6.40
2018-06-14T21:35:29.508Z,6.70
2018-06-14T21:37:57.103Z,7.20
2018-06-14T21:40:24.694Z,5.70
2018-06-14T21:42:52.310Z,5.30
2018-06-14T21:45:19.777Z,6.70
2018-06-14T21:47:47.313Z,6.00
2018-06-14T21:50:14.838Z,6.10
2018-06-14T21:52:42.382Z,6.30
2018-06-14T21:55:10.065Z,6.00
2018-06-14T22:00:38.253Z,5.63
2018-06-14T22:03:11.530Z,6.40
2018-06-14T22:05:39.163Z,5.80
2018-06-14T22:08:06.674Z,5.20
2018-06-14T22:10:34.243Z,6.50
2018-06-14T22:13:01.812Z,5.90
2018-06-14T22:15:29.420Z,6.63
2018-06-14T22:17:56.973Z,6.70
2018-06-14T22:20:30.480Z,6.43
2018-06-14T22:22:57.953Z,6.30
2018-06-14T22:25:25.575Z,6.03
2018-06-14T22:27:53.324Z,6.80
2018-06-14T22:30:20.824Z,7.03
2018-06-14T22:32:58.565Z,6.17
2018-06-14T22:35:28.361Z,6.60
2018-06-14T22:37:56.290Z,6.60
2018-06-14T22:40:23.900Z,6.47
2018-06-14T22:42:51.437Z,6.27
2018-06-14T22:45:19.039Z,6.50
2018-06-14T22:47:46.572Z,6.90
2018-06-14T22:50:14.167Z,6.80
2018-06-14T22:52:51.328Z,6.00
2018-06-14T22:55:20.123Z,6.60
2018-06-14T22:57:48.049Z,6.73
2018-06-14T23:00:28.519Z,7.10
2018-06-14T23:02:56.134Z,6.50
2018-06-14T23:05:29.526Z,6.43
2018-06-14T23:07:57.064Z,7.17
2018-06-14T23:10:40.025Z,6.53
2018-06-14T23:13:08.817Z,7.43
2018-06-14T23:15:36.500Z,7.13
2018-06-14T23:18:04.349Z,7.23
2018-06-14T23:20:32.783Z,7.80
2018-06-14T23:23:00.899Z,8.40
2018-06-14T23:25:29.298Z,8.70
2018-06-14T23:27:56.894Z,7.53
2018-06-14T23:30:24.632Z,7.83
2018-06-14T23:32:52.316Z,8.17
2018-06-14T23:35:20.043Z,8.27
2018-06-14T23:37:47.686Z,7.10
2018-06-14T23:40:15.303Z,7.87
2018-06-14T23:42:42.945Z,7.70
2018-06-14T23:45:10.471Z,8.10
2018-06-14T23:47:38.130Z,7.60
2018-06-14T23:50:05.897Z,8.03
2018-06-14T23:52:33.582Z,7.90
2018-06-14T23:55:01.219Z,7.50
2018-06-14T23:57:28.817Z,8.60
2018-06-14T23:59:56.462Z,7.90
